createdAt,value
2023-02-11T00:01:34.924Z,49.20
2023-02-11T00:04:05.783Z,47.10
2023-02-11T00:06:35.518Z,46.80
2023-02-11T00:09:05.440Z,45.70
2023-02-11T00:11:34.112Z,45.10
2023-02-11T00:14:05.408Z,44.10
2023-02-11T00:16:33.911Z,45.80
2023-02-11T00:19:06.329Z,38.90
2023-02-11T00:21:34.692Z,46.10
2023-02-11T00:24:03.210Z,37.90
2023-02-11T00:26:34.870Z,51.70
2023-02-11T00:29:04.423Z,73.10
2023-02-11T00:31:34.219Z,48.20
2023-02-11T00:34:02.752Z,47.10
2023-02-11T00:36:31.240Z,52.20
2023-02-11T00:39:00.704Z,57.60
2023-02-11T00:41:30.249Z,52.60
2023-02-11T00:44:02.519Z,45.00
2023-02-11T00:46:31.118Z,44.90
2023-02-11T00:48:59.667Z,47.50
2023-02-11T00:51:28.843Z,40.10
2023-02-11T00:53:58.000Z,50.00
2023-02-11T00:56:27.134Z,40.20
2023-02-11T00:58:57.984Z,50.00
2023-02-11T01:01:26.615Z,61.30
2023-02-11T01:03:54.807Z,41.90
2023-02-11T01:06:24.911Z,46.10
2023-02-11T01:08:53.570Z,50.60
2023-02-11T01:11:22.747Z,58.60
2023-02-11T01:13:51.639Z,46.60
2023-02-11T01:16:20.344Z,49.10
2023-02-11T01:18:49.606Z,46.60
2023-02-11T01:21:19.484Z,49.00
2023-02-11T01:23:48.202Z,40.30
2023-02-11T01:26:17.021Z,47.00
2023-02-11T01:28:45.514Z,48.30
2023-02-11T01:31:14.564Z,41.20
2023-02-11T01:33:43.011Z,44.40
2023-02-11T01:36:12.868Z,72.40
2023-02-11T01:38:41.863Z,47.60
2023-02-11T01:41:12.604Z,43.40
2023-02-11T01:43:46.149Z,48.80
2023-02-11T01:46:36.585Z,48.20
2023-02-11T01:49:13.246Z,41.10
2023-02-11T01:52:07.729Z,40.70
2023-02-11T01:55:02.587Z,45.70
2023-02-11T01:57:34.123Z,43.40
2023-02-11T02:00:21.755Z,41.30
2023-02-11T02:03:03.989Z,40.70
2023-02-11T02:05:42.386Z,43.30
2023-02-11T02:08:30.131Z,49.50
2023-02-11T02:11:01.122Z,38.30
2023-02-11T02:13:32.372Z,57.40
2023-02-11T02:16:09.302Z,50.50
2023-02-11T02:18:41.268Z,57.50
2023-02-11T02:22:01.457Z,39.10
2023-02-11T02:24:56.925Z,43.50
2023-02-11T02:28:02.850Z,40.80
2023-02-11T02:30:42.774Z,48.90
2023-02-11T02:33:52.776Z,50.50
2023-02-11T02:36:27.837Z,41.10
2023-02-11T02:39:04.256Z,74.20
2023-02-11T02:41:35.746Z,58.20
2023-02-11T02:44:04.896Z,64.20
2023-02-11T02:46:35.368Z,50.90
2023-02-11T02:49:07.804Z,34.30
2023-02-11T02:51:48.226Z,42.30
2023-02-11T02:54:48.306Z,46.20
2023-02-11T02:57:54.585Z,37.70
2023-02-11T03:00:42.463Z,48.20
2023-02-11T03:03:22.696Z,53.30
2023-02-11T03:05:58.773Z,40.80
2023-02-11T03:08:35.819Z,46.70
2023-02-11T03:11:06.595Z,50.70
2023-02-11T03:13:36.803Z,45.80
2023-02-11T03:16:12.336Z,38.50
2023-02-11T03:18:44.536Z,54.90
2023-02-11T03:21:15.419Z,23.90
2023-02-11T03:24:00.968Z,39.80
2023-02-11T03:26:34.760Z,47.60
2023-02-11T03:29:19.276Z,30.20
2023-02-11T03:31:56.381Z,37.50
2023-02-11T03:34:42.924Z,48.40
2023-02-11T03:37:45.504Z,40.20
2023-02-11T03:40:19.941Z,38.90
2023-02-11T03:43:01.149Z,33.80
2023-02-11T03:45:30.790Z,28.60
2023-02-11T03:48:12.159Z,46.60
2023-02-11T03:50:42.119Z,38.20
2023-02-11T03:53:11.322Z,35.50
2023-02-11T03:55:40.861Z,30.20
2023-02-11T03:58:09.538Z,54.50
2023-02-11T04:00:41.207Z,37.30
2023-02-11T04:03:11.655Z,35.70
2023-02-11T04:05:40.216Z,33.90
2023-02-11T04:08:09.413Z,48.60
2023-02-11T04:10:37.810Z,43.90
2023-02-11T04:13:06.079Z,49.40
2023-02-11T04:15:34.509Z,48.10
2023-02-11T04:18:03.744Z,40.60
2023-02-11T04:20:31.986Z,43.40
2023-02-11T04:23:00.457Z,36.60
2023-02-11T04:25:29.401Z,45.70
2023-02-11T04:27:57.800Z,54.60
2023-02-11T04:30:26.016Z,44.10
2023-02-11T04:32:57.004Z,32.60
2023-02-11T04:35:25.210Z,37.40
2023-02-11T04:37:53.531Z,34.90
2023-02-11T04:40:21.925Z,36.80
2023-02-11T04:42:50.204Z,29.50
2023-02-11T04:45:18.537Z,38.20
2023-02-11T04:47:46.796Z,35.90
2023-02-11T04:50:15.250Z,30.60
2023-02-11T04:52:43.595Z,43.30
2023-02-11T04:55:13.120Z,35.40
2023-02-11T04:57:41.424Z,35.20
2023-02-11T05:00:10.360Z,37.60
2023-02-11T05:02:38.694Z,40.10
2023-02-11T05:05:07.163Z,58.70
2023-02-11T05:07:35.654Z,43.00
2023-02-11T05:10:05.175Z,52.50
2023-02-11T05:12:33.437Z,44.10
2023-02-11T05:15:01.685Z,32.90
2023-02-11T05:17:30.277Z,34.40
2023-02-11T05:19:58.526Z,48.30
2023-02-11T05:22:26.752Z,33.80
2023-02-11T05:24:55.084Z,32.20
2023-02-11T05:27:23.263Z,34.10
2023-02-11T05:29:51.461Z,45.70
2023-02-11T05:32:19.652Z,31.30
2023-02-11T05:34:47.929Z,54.20
2023-02-11T05:37:16.208Z,44.80
2023-02-11T05:39:44.665Z,32.80
2023-02-11T05:42:13.948Z,43.10
2023-02-11T05:44:42.438Z,33.20
2023-02-11T05:47:10.610Z,35.50
2023-02-11T05:49:38.889Z,39.80
2023-02-11T05:52:07.149Z,27.60
2023-02-11T05:54:36.376Z,31.00
2023-02-11T05:57:04.884Z,33.50
2023-02-11T05:59:33.151Z,28.90
2023-02-11T06:02:02.207Z,36.80
2023-02-11T06:04:30.548Z,35.70
2023-02-11T06:06:58.785Z,40.90
2023-02-11T06:09:27.359Z,46.40
2023-02-11T06:11:55.729Z,40.10
2023-02-11T06:14:24.015Z,40.00
2023-02-11T06:16:52.344Z,57.90
2023-02-11T06:19:20.572Z,31.20
2023-02-11T06:21:48.795Z,33.90
2023-02-11T06:24:24.682Z,32.10
2023-02-11T06:27:06.302Z,37.70
2023-02-11T06:29:34.683Z,74.60
2023-02-11T06:32:03.211Z,39.80
2023-02-11T06:34:31.874Z,38.20
2023-02-11T06:37:00.263Z,48.80
2023-02-11T06:39:28.533Z,40.20
2023-02-11T06:41:56.882Z,41.40
2023-02-11T06:44:25.246Z,30.80
2023-02-11T06:46:53.512Z,38.20
2023-02-11T06:49:22.319Z,31.20
2023-02-11T06:51:50.640Z,46.50
2023-02-11T06:54:18.960Z,34.40
2023-02-11T06:56:47.406Z,45.80
2023-02-11T06:59:17.397Z,35.50
2023-02-11T07:01:45.657Z,37.10
2023-02-11T07:04:17.694Z,32.40
2023-02-11T07:06:45.918Z,42.00
2023-02-11T07:09:14.088Z,44.90
2023-02-11T07:11:42.921Z,42.80
2023-02-11T07:14:11.280Z,44.90
2023-02-11T07:16:39.718Z,45.20
2023-02-11T07:19:08.223Z,38.10
2023-02-11T07:21:36.670Z,48.20
2023-02-11T07:24:11.090Z,42.60
2023-02-11T07:26:39.859Z,51.60
2023-02-11T07:29:08.181Z,48.70
2023-02-11T07:31:36.593Z,54.10
2023-02-11T07:34:04.890Z,44.70
2023-02-11T07:36:33.337Z,49.10
2023-02-11T07:39:01.794Z,50.60
2023-02-11T07:41:30.535Z,58.30
2023-02-11T07:43:58.937Z,53.80
2023-02-11T07:46:28.083Z,41.40
2023-02-11T07:48:57.025Z,53.00
2023-02-11T07:51:28.195Z,48.60
2023-02-11T07:53:59.041Z,49.30
2023-02-11T07:56:28.898Z,41.20
2023-02-11T07:59:01.108Z,46.50
2023-02-11T08:01:30.605Z,41.50
2023-02-11T08:04:00.635Z,36.00
2023-02-11T08:06:31.687Z,48.50
2023-02-11T08:09:05.918Z,45.20
2023-02-11T08:11:34.238Z,54.60
2023-02-11T08:14:02.888Z,36.60
2023-02-11T08:16:36.298Z,37.10
2023-02-11T08:19:13.925Z,41.90
2023-02-11T08:21:43.391Z,48.90
2023-02-11T08:24:12.678Z,40.30
2023-02-11T08:26:41.140Z,47.00
2023-02-11T08:29:14.053Z,32.10
2023-02-11T08:31:45.257Z,40.70
2023-02-11T08:34:14.554Z,49.70
2023-02-11T08:36:43.820Z,35.10
2023-02-11T08:39:21.230Z,34.90
2023-02-11T08:41:54.504Z,31.30
2023-02-11T08:44:24.342Z,37.20
2023-02-11T08:46:52.614Z,26.50
2023-02-11T08:49:21.278Z,31.50
2023-02-11T08:51:50.260Z,26.00
2023-02-11T08:54:19.122Z,24.80
2023-02-11T08:56:51.850Z,30.10
2023-02-11T08:59:20.242Z,25.70
2023-02-11T09:01:49.211Z,24.90
2023-02-11T09:04:17.562Z,22.10
2023-02-11T09:06:46.347Z,25.30
2023-02-11T09:09:16.553Z,28.70
2023-02-11T09:11:46.169Z,28.50
2023-02-11T09:14:20.605Z,28.50
2023-02-11T09:16:50.638Z,32.80
2023-02-11T09:19:19.921Z,26.40
2023-02-11T09:21:48.203Z,22.50
2023-02-11T09:24:16.513Z,26.60
2023-02-11T09:26:44.858Z,32.00
2023-02-11T09:29:13.255Z,30.40
2023-02-11T09:31:41.745Z,34.90
2023-02-11T09:34:11.944Z,31.90
2023-02-11T09:36:41.628Z,22.90
2023-02-11T09:39:14.769Z,26.60
2023-02-11T09:42:14.239Z,24.80
2023-02-11T09:44:46.087Z,28.90
2023-02-11T09:47:39.937Z,22.50
2023-02-11T09:50:14.750Z,21.90
2023-02-11T09:52:52.882Z,31.10
2023-02-11T09:55:31.117Z,26.00
2023-02-11T09:57:59.372Z,26.70
2023-02-11T10:00:49.849Z,27.80
2023-02-11T10:03:23.739Z,29.20
2023-02-11T10:06:13.045Z,25.30
2023-02-11T10:08:53.844Z,30.70
2023-02-11T10:11:34.618Z,32.30
2023-02-11T10:14:21.618Z,32.90
2023-02-11T10:17:14.835Z,27.10
2023-02-11T10:20:11.368Z,25.30
2023-02-11T10:22:52.683Z,19.70
2023-02-11T10:25:45.447Z,18.00
2023-02-11T10:28:20.521Z,25.50
2023-02-11T10:31:02.298Z,20.60
2023-02-11T10:33:51.628Z,24.80
2023-02-11T10:36:24.392Z,18.90
2023-02-11T10:38:52.674Z,20.70
2023-02-11T10:41:26.371Z,19.70
2023-02-11T10:43:55.583Z,17.60
2023-02-11T10:46:31.678Z,20.00
2023-02-11T10:49:00.460Z,18.70
2023-02-11T10:51:33.712Z,21.00
2023-02-11T10:54:05.399Z,25.50
2023-02-11T10:56:36.725Z,26.20
2023-02-11T10:59:19.776Z,28.20
2023-02-11T11:02:06.137Z,25.70
2023-02-11T11:04:45.114Z,25.50
2023-02-11T11:07:30.218Z,22.50
2023-02-11T11:10:04.235Z,25.30
2023-02-11T11:12:35.297Z,22.90
2023-02-11T11:15:19.012Z,20.00
2023-02-11T11:17:49.434Z,21.80
2023-02-11T11:20:36.452Z,25.60
2023-02-11T11:23:17.630Z,28.50
2023-02-11T11:26:09.780Z,28.30
2023-02-11T11:28:46.985Z,28.70
2023-02-11T11:31:20.817Z,27.00
2023-02-11T11:33:53.003Z,35.00
2023-02-11T11:36:32.396Z,25.80
2023-02-11T11:39:16.805Z,24.40
2023-02-11T11:41:59.269Z,41.10
2023-02-11T11:44:33.848Z,29.00
2023-02-11T11:47:29.694Z,32.60
2023-02-11T11:50:18.521Z,39.00
2023-02-11T11:53:00.227Z,41.00
2023-02-11T11:55:39.335Z,43.80
2023-02-11T11:58:15.513Z,47.70
2023-02-11T12:00:56.483Z,52.30
2023-02-11T12:03:36.953Z,41.30
2023-02-11T12:06:21.151Z,40.00
2023-02-11T12:11:49.964Z,39.90
2023-02-11T12:14:50.616Z,40.70
2023-02-11T12:17:42.222Z,26.80
2023-02-11T12:20:26.236Z,47.80
2023-02-11T12:23:03.685Z,48.90
2023-02-11T12:26:10.542Z,32.60
2023-02-11T12:29:05.659Z,30.80
2023-02-11T12:32:01.471Z,46.50
2023-02-11T12:34:50.195Z,31.50
2023-02-11T12:38:06.555Z,22.40
2023-02-11T12:40:55.005Z,26.80
2023-02-11T12:43:39.825Z,25.50
2023-02-11T12:46:32.592Z,32.00
2023-02-11T12:49:22.327Z,27.90
2023-02-11T12:52:12.867Z,26.50
2023-02-11T12:54:53.585Z,22.60
2023-02-11T12:57:26.624Z,20.80
2023-02-11T13:00:13.972Z,28.10
2023-02-11T13:02:56.257Z,29.20
2023-02-11T13:05:40.991Z,27.20
2023-02-11T13:08:30.799Z,34.60
2023-02-11T13:11:08.113Z,27.40
2023-02-11T13:13:46.694Z,29.00
2023-02-11T13:16:49.912Z,22.80
2023-02-11T13:19:27.554Z,24.30
2023-02-11T13:22:15.010Z,24.10
2023-02-11T13:25:21.267Z,21.80
2023-02-11T13:28:40.125Z,26.50
2023-02-11T13:31:13.743Z,22.80
2023-02-11T13:36:57.328Z,27.20
2023-02-11T13:39:27.955Z,22.40
2023-02-11T13:42:04.235Z,26.50
2023-02-11T13:44:34.642Z,25.50
2023-02-11T13:47:07.407Z,26.20
2023-02-11T13:49:52.049Z,25.80
2023-02-11T13:52:37.558Z,26.80
2023-02-11T13:55:40.241Z,36.30
2023-02-11T13:58:14.535Z,22.50
2023-02-11T14:00:47.548Z,24.60
2023-02-11T14:03:46.028Z,27.50
2023-02-11T14:06:43.507Z,25.10
2023-02-11T14:09:17.398Z,25.20
2023-02-11T14:12:15.402Z,30.70
2023-02-11T14:15:23.410Z,23.50
2023-02-11T14:17:52.598Z,28.20
2023-02-11T14:20:43.410Z,26.00
2023-02-11T14:23:27.476Z,34.40
2023-02-11T14:26:08.213Z,28.00
2023-02-11T14:28:38.961Z,38.60
2023-02-11T14:31:22.151Z,36.00
2023-02-11T14:34:23.172Z,35.00
2023-02-11T14:37:23.370Z,27.80
2023-02-11T14:40:32.069Z,36.20
2023-02-11T14:43:18.211Z,28.60
2023-02-11T14:45:53.913Z,35.80
2023-02-11T14:48:38.673Z,28.90
2023-02-11T14:51:15.766Z,44.10
2023-02-11T14:54:06.597Z,33.10
2023-02-11T14:56:36.391Z,32.50
2023-02-11T14:59:18.154Z,35.10
2023-02-11T15:01:51.472Z,28.50
2023-02-11T15:04:36.158Z,29.70
2023-02-11T15:07:11.945Z,37.40
2023-02-11T15:09:54.067Z,32.90
2023-02-11T15:12:27.860Z,41.90
2023-02-11T15:17:32.021Z,34.10
2023-02-11T15:20:02.991Z,36.50
2023-02-11T15:22:37.095Z,31.50
2023-02-11T15:27:53.192Z,32.50
2023-02-11T15:30:21.428Z,28.10
2023-02-11T15:33:00.011Z,30.80
2023-02-11T15:35:35.265Z,35.30
2023-02-11T15:38:04.719Z,36.10
2023-02-11T15:40:36.331Z,32.30
2023-02-11T15:43:07.853Z,33.10
2023-02-11T15:45:56.880Z,33.20
2023-02-11T15:48:36.698Z,34.70
2023-02-11T15:51:28.715Z,39.50
2023-02-11T15:54:16.284Z,32.50
2023-02-11T15:56:48.654Z,40.40
2023-02-11T15:59:34.984Z,38.60
2023-02-11T16:02:10.253Z,42.00
2023-02-11T16:04:38.674Z,49.80
2023-02-11T16:07:06.956Z,49.50
2023-02-11T16:09:37.121Z,43.30
2023-02-11T16:12:27.167Z,40.80
2023-02-11T16:14:59.771Z,41.70
2023-02-11T16:17:29.841Z,42.40
2023-02-11T16:19:58.536Z,40.60
2023-02-11T16:22:35.563Z,51.60
2023-02-11T16:25:04.139Z,47.90
2023-02-11T16:27:41.715Z,53.40
2023-02-11T16:30:34.905Z,56.80
2023-02-11T16:33:05.508Z,58.00
2023-02-11T16:35:33.907Z,46.10
2023-02-11T16:38:02.313Z,53.30
2023-02-11T16:40:30.681Z,51.40
2023-02-11T16:42:59.363Z,63.10
2023-02-11T16:45:30.779Z,49.20
2023-02-11T16:48:00.725Z,63.80
2023-02-11T16:50:30.021Z,58.90
2023-02-11T16:52:59.625Z,59.90
2023-02-11T16:55:32.644Z,56.70
2023-02-11T16:58:01.098Z,63.20
2023-02-11T17:00:30.107Z,58.10
2023-02-11T17:02:58.447Z,55.10
2023-02-11T17:05:27.261Z,65.40
2023-02-11T17:07:55.442Z,59.30
2023-02-11T17:10:24.850Z,64.50
2023-02-11T17:12:53.583Z,56.40
2023-02-11T17:15:22.075Z,56.10
2023-02-11T17:17:52.878Z,55.10
2023-02-11T17:20:21.307Z,44.70
2023-02-11T17:22:50.129Z,46.90
2023-02-11T17:25:18.908Z,41.50
2023-02-11T17:27:47.273Z,44.00
2023-02-11T17:30:15.738Z,45.90
2023-02-11T17:32:44.489Z,45.90
2023-02-11T17:35:12.824Z,45.80
2023-02-11T17:37:41.258Z,37.10
2023-02-11T17:40:10.501Z,43.10
2023-02-11T17:42:38.997Z,54.00
2023-02-11T17:45:08.598Z,50.10
2023-02-11T17:47:36.939Z,59.50
2023-02-11T17:50:05.696Z,87.80
2023-02-11T17:52:34.154Z,53.00
2023-02-11T17:55:02.638Z,48.70
2023-02-11T17:57:33.049Z,44.60
2023-02-11T18:00:05.941Z,46.90
2023-02-11T18:02:40.970Z,43.80
2023-02-11T18:05:10.244Z,40.50
2023-02-11T18:07:38.701Z,33.10
2023-02-11T18:10:08.497Z,38.70
2023-02-11T18:12:37.017Z,33.60
2023-02-11T18:15:05.652Z,30.50
2023-02-11T18:17:33.830Z,32.10
2023-02-11T18:20:03.647Z,36.20
2023-02-11T18:22:38.628Z,45.30
2023-02-11T18:25:08.832Z,37.10
2023-02-11T18:27:37.385Z,57.10
2023-02-11T18:30:07.148Z,53.60
2023-02-11T18:32:35.499Z,42.60
2023-02-11T18:35:14.821Z,39.60
2023-02-11T18:37:43.402Z,51.50
2023-02-11T18:40:12.895Z,44.70
2023-02-11T18:42:41.745Z,46.50
2023-02-11T18:45:12.783Z,46.90
2023-02-11T18:47:41.546Z,40.70
2023-02-11T18:50:11.397Z,38.70
2023-02-11T18:52:47.106Z,45.40
2023-02-11T18:55:16.343Z,52.80
2023-02-11T18:57:44.356Z,45.10
2023-02-11T19:00:13.494Z,42.50
2023-02-11T19:02:42.560Z,35.30
2023-02-11T19:05:11.576Z,38.50
2023-02-11T19:07:42.496Z,36.90
2023-02-11T19:10:11.286Z,37.50
2023-02-11T19:12:39.618Z,42.80
2023-02-11T19:15:11.642Z,39.40
2023-02-11T19:17:40.616Z,30.70
2023-02-11T19:20:09.161Z,47.70
2023-02-11T19:22:37.409Z,39.60
2023-02-11T19:25:07.238Z,47.50
2023-02-11T19:27:35.772Z,39.20
2023-02-11T19:30:08.358Z,42.20
2023-02-11T19:32:36.689Z,45.20
2023-02-11T19:35:05.075Z,36.40
2023-02-11T19:37:33.472Z,44.80
2023-02-11T19:40:01.760Z,44.90
2023-02-11T19:42:30.252Z,39.60
2023-02-11T19:44:58.779Z,42.60
2023-02-11T19:47:27.998Z,40.10
2023-02-11T19:49:56.411Z,39.20
2023-02-11T19:52:27.512Z,37.30
2023-02-11T19:54:56.214Z,38.80
2023-02-11T19:57:24.530Z,41.00
2023-02-11T19:59:55.034Z,37.60
2023-02-11T20:02:25.911Z,36.50
2023-02-11T20:04:54.213Z,33.20
2023-02-11T20:07:22.396Z,38.50
2023-02-11T20:09:51.056Z,36.10
2023-02-11T20:12:19.305Z,34.80
2023-02-11T20:14:47.587Z,35.30
2023-02-11T20:17:15.764Z,40.00
2023-02-11T20:19:43.975Z,39.20
2023-02-11T20:22:12.378Z,33.40
2023-02-11T20:24:40.746Z,39.30
2023-02-11T20:27:12.449Z,40.10
2023-02-11T20:29:40.815Z,34.00
2023-02-11T20:32:11.537Z,37.60
2023-02-11T20:34:40.104Z,40.80
2023-02-11T20:37:11.190Z,37.70
2023-02-11T20:39:41.946Z,39.40
2023-02-11T20:42:15.029Z,42.00
2023-02-11T20:44:43.555Z,43.90
2023-02-11T20:47:12.873Z,47.20
2023-02-11T20:49:41.162Z,44.00
2023-02-11T20:52:09.751Z,49.00
2023-02-11T20:54:38.134Z,42.10
2023-02-11T20:57:07.330Z,43.80
2023-02-11T20:59:35.772Z,47.60
2023-02-11T21:02:06.832Z,42.50
2023-02-11T21:04:35.546Z,42.10
2023-02-11T21:07:03.792Z,44.80
2023-02-11T21:09:33.427Z,42.40
2023-02-11T21:12:02.982Z,45.60
2023-02-11T21:14:31.333Z,51.50
2023-02-11T21:16:59.979Z,42.80
2023-02-11T21:19:28.371Z,38.90
2023-02-11T21:22:00.673Z,43.00
2023-02-11T21:24:30.921Z,42.60
2023-02-11T21:26:59.658Z,39.20
2023-02-11T21:29:28.053Z,42.00
2023-02-11T21:31:56.552Z,42.90
2023-02-11T21:34:25.061Z,44.80
2023-02-11T21:36:53.344Z,41.40
2023-02-11T21:39:21.987Z,43.70
2023-02-11T21:41:51.696Z,39.20
2023-02-11T21:44:20.161Z,46.10
2023-02-11T21:46:48.572Z,49.50
2023-02-11T21:49:21.442Z,56.20
2023-02-11T21:51:54.964Z,51.40
2023-02-11T21:54:25.880Z,40.70
2023-02-11T21:56:54.701Z,43.00
2023-02-11T21:59:23.062Z,45.50
2023-02-11T22:01:51.401Z,43.70
2023-02-11T22:04:20.081Z,43.80
2023-02-11T22:06:48.288Z,47.10
2023-02-11T22:09:16.603Z,44.50
2023-02-11T22:11:44.962Z,48.20
2023-02-11T22:14:13.249Z,46.10
2023-02-11T22:16:41.590Z,48.90
2023-02-11T22:19:10.281Z,43.40
2023-02-11T22:21:38.835Z,45.00
2023-02-11T22:24:09.598Z,49.90
2023-02-11T22:26:40.233Z,48.20
2023-02-11T22:29:12.444Z,43.90
2023-02-11T22:31:43.666Z,44.40
2023-02-11T22:34:12.505Z,41.20
2023-02-11T22:36:42.406Z,51.30
2023-02-11T22:39:18.729Z,46.60
2023-02-11T22:41:47.898Z,46.80
2023-02-11T22:44:17.325Z,48.60
2023-02-11T22:46:46.290Z,43.90
2023-02-11T22:49:16.508Z,48.00
2023-02-11T22:51:44.880Z,43.60
2023-02-11T22:54:17.282Z,46.90
2023-02-11T22:56:49.628Z,58.20
2023-02-11T22:59:18.956Z,48.70
2023-02-11T23:01:47.341Z,49.40
2023-02-11T23:04:17.150Z,50.40
2023-02-11T23:06:47.684Z,48.60
2023-02-11T23:09:16.120Z,42.70
2023-02-11T23:11:48.601Z,45.50
2023-02-11T23:14:19.115Z,49.30
2023-02-11T23:16:50.710Z,47.80
2023-02-11T23:19:20.068Z,46.90
2023-02-11T23:21:51.574Z,50.50
2023-02-11T23:24:19.968Z,43.70
2023-02-11T23:26:48.405Z,51.20
2023-02-11T23:29:17.232Z,55.90
2023-02-11T23:31:46.614Z,52.90
2023-02-11T23:34:20.419Z,42.60
2023-02-11T23:36:52.637Z,43.20
2023-02-11T23:39:21.225Z,41.50
2023-02-11T23:41:52.175Z,46.10
2023-02-11T23:44:20.538Z,43.50
2023-02-11T23:46:48.960Z,45.80
2023-02-11T23:49:17.256Z,39.90
2023-02-11T23:51:45.667Z,48.30
2023-02-11T23:54:15.291Z,50.70
2023-02-11T23:56:43.613Z,47.00
2023-02-11T23:59:12.437Z,49.20
